createdAt,value
2022-12-06T00:01:18.677Z,101248.09
2022-12-06T00:03:48.516Z,101246.47
2022-12-06T00:06:19.286Z,101251.69
2022-12-06T00:08:47.065Z,101240.94
2022-12-06T00:11:19.560Z,101245.97
2022-12-06T00:13:46.543Z,101245.44
2022-12-06T00:16:16.670Z,101237.44
2022-12-06T00:18:44.947Z,101237.75
2022-12-06T00:21:12.808Z,101235.00
2022-12-06T00:23:42.157Z,101231.66
2022-12-06T00:26:09.898Z,101236.09
2022-12-06T00:28:37.475Z,101230.56
2022-12-06T00:31:07.096Z,101228.91
2022-12-06T00:33:35.102Z,101231.41
2022-12-06T00:36:04.766Z,101229.72
2022-12-06T00:38:31.430Z,101225.88
2022-12-06T00:41:00.925Z,101236.38
2022-12-06T00:43:27.898Z,101240.78
2022-12-06T00:45:56.693Z,101234.75
2022-12-06T00:48:23.407Z,101233.09
2022-12-06T00:50:50.354Z,101238.63
2022-12-06T00:53:17.439Z,101241.38
2022-12-06T00:55:44.773Z,101235.03
2022-12-06T00:58:12.097Z,101230.63
2022-12-06T01:00:40.702Z,101231.75
2022-12-06T01:03:07.760Z,101234.50
2022-12-06T01:05:34.614Z,101231.25
2022-12-06T01:08:01.241Z,101238.41
2022-12-06T01:10:29.559Z,101230.94
2022-12-06T01:12:56.062Z,101229.53
2022-12-06T01:15:22.573Z,101238.91
2022-12-06T01:17:49.250Z,101235.56
2022-12-06T01:20:15.653Z,101235.56
2022-12-06T01:22:42.043Z,101238.00
2022-12-06T01:25:08.739Z,101231.41
2022-12-06T01:27:35.046Z,101235.81
2022-12-06T01:30:01.762Z,101242.97
2022-12-06T01:32:30.051Z,101243.78
2022-12-06T01:34:56.520Z,101243.47
2022-12-06T01:37:24.361Z,101244.34
2022-12-06T01:39:50.852Z,101247.09
2022-12-06T01:42:17.330Z,101252.63
2022-12-06T01:44:47.259Z,101244.59
2022-12-06T01:47:19.426Z,101256.78
2022-12-06T01:49:54.008Z,101250.44
2022-12-06T01:52:24.459Z,101251.25
2022-12-06T01:54:50.983Z,101242.97
2022-12-06T01:57:18.000Z,101242.97
2022-12-06T01:59:45.421Z,101239.09
2022-12-06T02:02:13.005Z,101228.84
2022-12-06T02:04:40.279Z,101228.03
2022-12-06T02:07:07.773Z,101232.44
2022-12-06T02:09:36.007Z,101226.09
2022-12-06T02:12:02.378Z,101220.56
2022-12-06T02:14:32.822Z,101231.63
2022-12-06T02:17:25.727Z,101230.53
2022-12-06T02:20:13.284Z,101229.16
2022-12-06T02:23:19.197Z,101225.28
2022-12-06T02:25:51.665Z,101220.78
2022-12-06T02:28:28.589Z,101225.50
2022-12-06T02:31:00.107Z,101220.78
2022-12-06T02:33:40.039Z,101213.94
2022-12-06T02:36:31.964Z,101218.84
2022-12-06T02:39:06.733Z,101218.03
2022-12-06T02:41:47.681Z,101213.31
2022-12-06T02:44:39.658Z,101213.00
2022-12-06T02:47:09.193Z,101214.38
2022-12-06T02:49:38.689Z,101213.53
2022-12-06T02:52:05.709Z,101211.59
2022-12-06T02:54:32.286Z,101213.53
2022-12-06T02:56:58.787Z,101210.78
2022-12-06T02:59:25.328Z,101207.72
2022-12-06T03:01:58.420Z,101213.22
2022-12-06T03:04:52.653Z,101212.41
2022-12-06T03:07:35.486Z,101211.00
2022-12-06T03:10:40.949Z,101207.13
2022-12-06T03:13:19.782Z,101209.25
2022-12-06T03:15:59.998Z,101208.97
2022-12-06T03:18:34.088Z,101209.69
2022-12-06T03:21:23.971Z,101208.06
2022-12-06T03:23:51.506Z,101207.66
2022-12-06T03:26:25.398Z,101210.13
2022-12-06T03:28:56.272Z,101218.13
2022-12-06T03:31:25.409Z,101217.50
2022-12-06T03:34:15.792Z,101211.16
2022-12-06T03:36:44.783Z,101210.56
2022-12-06T03:39:15.503Z,101209.75
2022-12-06T03:41:53.817Z,101212.19
2022-12-06T03:44:21.581Z,101211.88
2022-12-06T03:46:51.535Z,101215.19
2022-12-06T03:49:24.755Z,101204.13
2022-12-06T03:51:51.276Z,101204.63
2022-12-06T03:54:17.744Z,101210.97
2022-12-06T03:56:45.839Z,101197.97
2022-12-06T03:59:12.156Z,101206.78
2022-12-06T04:01:39.225Z,101207.59
2022-12-06T04:04:06.175Z,101212.00
2022-12-06T04:06:32.804Z,101199.00
2022-12-06T04:09:19.166Z,101200.66
2022-12-06T04:11:46.373Z,101205.06
2022-12-06T04:14:12.795Z,101202.31
2022-12-06T04:16:57.981Z,101202.31
2022-12-06T04:19:24.347Z,101197.28
2022-12-06T04:22:09.352Z,101204.75
2022-12-06T04:24:36.138Z,101205.25
2022-12-06T04:27:22.184Z,101202.47
2022-12-06T04:30:07.198Z,101204.16
2022-12-06T04:32:51.892Z,101201.38
2022-12-06T04:35:36.725Z,101200.25
2022-12-06T04:38:21.546Z,101198.31
2022-12-06T04:40:48.182Z,101200.25
2022-12-06T04:43:33.232Z,101192.78
2022-12-06T04:45:59.639Z,101197.16
2022-12-06T04:48:26.123Z,101190.00
2022-12-06T04:50:52.659Z,101189.50
2022-12-06T04:53:19.040Z,101193.38
2022-12-06T04:55:46.960Z,101193.38
2022-12-06T04:58:13.872Z,101198.63
2022-12-06T05:00:44.708Z,101187.25
2022-12-06T05:03:14.830Z,101193.91
2022-12-06T05:05:42.632Z,101190.81
2022-12-06T05:08:09.857Z,101184.47
2022-12-06T05:10:38.057Z,101188.06
2022-12-06T05:13:05.543Z,101179.44
2022-12-06T05:15:33.145Z,101185.81
2022-12-06T05:17:59.809Z,101191.84
2022-12-06T05:20:26.353Z,101181.13
2022-12-06T05:22:53.134Z,101184.16
2022-12-06T05:25:20.797Z,101186.09
2022-12-06T05:27:47.308Z,101181.72
2022-12-06T05:30:14.071Z,101188.38
2022-12-06T05:32:40.568Z,101180.38
2022-12-06T05:35:08.253Z,101191.41
2022-12-06T05:37:34.600Z,101180.38
2022-12-06T05:40:01.178Z,101183.13
2022-12-06T05:42:27.876Z,101181.22
2022-12-06T05:44:54.424Z,101177.31
2022-12-06T05:47:20.702Z,101180.91
2022-12-06T05:49:47.025Z,101178.13
2022-12-06T05:52:13.521Z,101174.22
2022-12-06T05:54:40.047Z,101169.53
2022-12-06T05:57:06.543Z,101177.53
2022-12-06T05:59:33.678Z,101174.75
2022-12-06T06:02:02.475Z,101177.22
2022-12-06T06:04:29.109Z,101175.25
2022-12-06T06:06:55.473Z,101173.00
2022-12-06T06:09:22.207Z,101171.91
2022-12-06T06:11:48.551Z,101173.81
2022-12-06T06:14:14.918Z,101175.16
2022-12-06T06:16:41.482Z,101171.59
2022-12-06T06:19:08.205Z,101170.44
2022-12-06T06:21:34.851Z,101176.50
2022-12-06T06:24:01.404Z,101170.97
2022-12-06T06:26:27.851Z,101166.75
2022-12-06T06:28:54.364Z,101171.97
2022-12-06T06:31:20.767Z,101173.66
2022-12-06T06:33:47.726Z,101178.03
2022-12-06T06:36:14.290Z,101178.84
2022-12-06T06:38:40.769Z,101178.84
2022-12-06T06:41:07.399Z,101184.38
2022-12-06T06:43:33.912Z,101182.75
2022-12-06T06:46:03.488Z,101184.72
2022-12-06T06:48:35.022Z,101185.22
2022-12-06T06:51:07.497Z,101183.25
2022-12-06T06:53:34.532Z,101179.06
2022-12-06T06:56:01.083Z,101178.75
2022-12-06T06:58:27.445Z,101180.09
2022-12-06T07:00:58.539Z,101183.69
2022-12-06T07:03:26.535Z,101179.78
2022-12-06T07:05:54.747Z,101186.63
2022-12-06T07:08:22.145Z,101182.75
2022-12-06T07:10:49.284Z,101186.34
2022-12-06T07:13:17.629Z,101193.84
2022-12-06T07:15:44.467Z,101180.00
2022-12-06T07:18:11.069Z,101187.78
2022-12-06T07:20:37.400Z,101191.34
2022-12-06T07:23:03.799Z,101189.72
2022-12-06T07:25:31.924Z,101189.41
2022-12-06T07:27:58.429Z,101181.09
2022-12-06T07:30:27.556Z,101184.69
2022-12-06T07:32:54.756Z,101183.59
2022-12-06T07:35:21.734Z,101178.06
2022-12-06T07:37:48.177Z,101184.09
2022-12-06T07:40:16.861Z,101190.75
2022-12-06T07:43:02.014Z,101192.06
2022-12-06T07:45:28.999Z,101193.72
2022-12-06T07:47:55.393Z,101184.59
2022-12-06T07:50:25.085Z,101186.25
2022-12-06T07:52:51.663Z,101197.81
2022-12-06T07:55:21.121Z,101192.28
2022-12-06T07:57:47.486Z,101192.81
2022-12-06T08:00:16.117Z,101201.94
2022-12-06T08:02:43.163Z,101199.34
2022-12-06T08:05:10.725Z,101199.06
2022-12-06T08:07:37.454Z,101201.19
2022-12-06T08:10:05.034Z,101202.53
2022-12-06T08:12:32.105Z,101198.63
2022-12-06T08:15:00.039Z,101206.31
2022-12-06T08:17:27.296Z,101204.88
2022-12-06T08:19:53.717Z,101204.59
2022-12-06T08:22:20.292Z,101203.94
2022-12-06T08:24:46.576Z,101208.06
2022-12-06T08:27:12.969Z,101202.69
2022-12-06T08:29:39.324Z,101207.63
2022-12-06T08:32:05.818Z,101208.97
2022-12-06T08:34:32.118Z,101209.78
2022-12-06T08:37:03.107Z,101211.09
2022-12-06T08:39:30.120Z,101216.34
2022-12-06T08:41:58.054Z,101216.03
2022-12-06T08:44:28.475Z,101222.06
2022-12-06T08:46:56.239Z,101218.69
2022-12-06T08:49:24.364Z,101219.19
2022-12-06T08:51:52.678Z,101220.53
2022-12-06T08:54:22.804Z,101225.44
2022-12-06T08:56:50.589Z,101226.75
2022-12-06T08:59:17.962Z,101225.63
2022-12-06T09:01:45.325Z,101226.97
2022-12-06T09:04:12.665Z,101230.56
2022-12-06T09:06:41.475Z,101235.78
2022-12-06T09:09:09.894Z,101240.19
2022-12-06T09:11:37.286Z,101234.34
2022-12-06T09:14:03.919Z,101231.25
2022-12-06T09:16:30.352Z,101241.72
2022-12-06T09:18:57.711Z,101234.44
2022-12-06T09:21:28.918Z,101236.88
2022-12-06T09:23:56.595Z,101236.75
2022-12-06T09:26:23.515Z,101237.25
2022-12-06T09:28:50.869Z,101235.50
2022-12-06T09:31:18.957Z,101231.34
2022-12-06T09:33:45.770Z,101233.78
2022-12-06T09:36:18.324Z,101234.09
2022-12-06T09:38:47.268Z,101239.00
2022-12-06T09:41:40.161Z,101232.66
2022-12-06T09:44:19.149Z,101236.22
2022-12-06T09:47:31.696Z,101229.88
2022-12-06T09:50:13.513Z,101243.13
2022-12-06T09:53:14.206Z,101244.75
2022-12-06T09:55:55.483Z,101231.91
2022-12-06T09:58:49.885Z,101228.31
2022-12-06T10:01:27.259Z,101225.75
2022-12-06T10:04:17.849Z,101229.81
2022-12-06T10:07:19.484Z,101230.84
2022-12-06T10:10:30.428Z,101227.44
2022-12-06T10:13:10.446Z,101219.00
2022-12-06T10:16:14.685Z,101219.97
2022-12-06T10:19:01.289Z,101223.78
2022-12-06T10:21:37.125Z,101214.84
2022-12-06T10:24:31.319Z,101217.47
2022-12-06T10:27:09.904Z,101209.03
2022-12-06T10:29:53.402Z,101210.03
2022-12-06T10:32:44.569Z,101204.69
2022-12-06T10:35:29.986Z,101195.22
2022-12-06T10:38:47.815Z,101197.31
2022-12-06T10:41:44.584Z,101198.34
2022-12-06T10:44:37.207Z,101204.06
2022-12-06T10:47:13.080Z,101197.91
2022-12-06T10:49:39.568Z,101196.44
2022-12-06T10:52:17.997Z,101193.66
2022-12-06T10:54:55.733Z,101197.44
2022-12-06T10:57:32.171Z,101202.03
2022-12-06T11:00:05.253Z,101192.56
2022-12-06T11:03:08.283Z,101186.19
2022-12-06T11:05:41.281Z,101186.38
2022-12-06T11:08:21.114Z,101188.34
2022-12-06T11:10:48.244Z,101177.72
2022-12-06T11:13:29.302Z,101182.44
2022-12-06T11:16:20.628Z,101179.88
2022-12-06T11:18:48.527Z,101176.44
2022-12-06T11:21:36.974Z,101181.97
2022-12-06T11:24:15.636Z,101175.47
2022-12-06T11:26:48.558Z,101173.38
2022-12-06T11:29:16.266Z,101168.31
2022-12-06T11:31:46.279Z,101167.69
2022-12-06T11:34:23.215Z,101167.34
2022-12-06T11:36:58.267Z,101162.47
2022-12-06T11:39:27.350Z,101170.16
2022-12-06T11:41:56.689Z,101166.25
2022-12-06T11:44:26.565Z,101169.50
2022-12-06T11:46:59.921Z,101164.75
2022-12-06T11:49:40.107Z,101163.31
2022-12-06T11:52:13.148Z,101165.44
2022-12-06T11:54:49.943Z,101162.81
2022-12-06T11:57:30.462Z,101158.94
2022-12-06T12:00:22.219Z,101158.59
2022-12-06T12:02:51.424Z,101160.41
2022-12-06T12:05:38.638Z,101163.47
2022-12-06T12:08:08.117Z,101165.28
2022-12-06T12:10:38.772Z,101164.16
2022-12-06T12:13:29.816Z,101163.84
2022-12-06T12:16:00.597Z,101160.41
2022-12-06T12:18:36.792Z,101160.41
2022-12-06T12:21:06.293Z,101160.09
2022-12-06T12:23:36.947Z,101159.75
2022-12-06T12:26:13.627Z,101158.44
2022-12-06T12:28:41.883Z,101148.34
2022-12-06T12:31:20.658Z,101161.38
2022-12-06T12:33:47.584Z,101159.97
2022-12-06T12:36:26.463Z,101155.53
2022-12-06T12:39:00.706Z,101154.88
2022-12-06T12:41:42.019Z,101162.09
2022-12-06T12:44:38.522Z,101159.47
2022-12-06T12:47:20.378Z,101151.47
2022-12-06T12:50:18.568Z,101157.84
2022-12-06T12:52:45.483Z,101152.78
2022-12-06T12:55:21.990Z,101154.06
2022-12-06T12:57:51.099Z,101153.25
2022-12-06T13:00:26.146Z,101151.63
2022-12-06T13:03:00.421Z,101151.13
2022-12-06T13:05:34.328Z,101159.44
2022-12-06T13:08:19.816Z,101150.94
2022-12-06T13:10:52.827Z,101155.00
2022-12-06T13:13:28.809Z,101146.66
2022-12-06T13:15:58.196Z,101147.81
2022-12-06T13:18:46.761Z,101145.38
2022-12-06T13:21:24.562Z,101143.91
2022-12-06T13:23:54.989Z,101142.44
2022-12-06T13:26:29.547Z,101141.31
2022-12-06T13:29:03.821Z,101136.28
2022-12-06T13:31:36.822Z,101136.41
2022-12-06T13:34:17.961Z,101140.53
2022-12-06T13:36:44.481Z,101134.28
2022-12-06T13:39:36.356Z,101143.78
2022-12-06T13:42:19.368Z,101133.97
2022-12-06T13:44:48.659Z,101131.19
2022-12-06T13:47:27.194Z,101141.81
2022-12-06T13:50:03.601Z,101136.59
2022-12-06T13:52:42.865Z,101134.44
2022-12-06T13:55:24.628Z,101138.38
2022-12-06T13:58:19.028Z,101136.59
2022-12-06T14:00:48.337Z,101135.75
2022-12-06T14:03:17.520Z,101143.91
2022-12-06T14:06:13.943Z,101145.22
2022-12-06T14:08:41.432Z,101146.84
2022-12-06T14:11:14.353Z,101141.13
2022-12-06T14:13:43.517Z,101140.97
2022-12-06T14:16:17.046Z,101138.47
2022-12-06T14:18:43.919Z,101143.56
2022-12-06T14:21:23.701Z,101145.34
2022-12-06T14:23:50.358Z,101147.81
2022-12-06T14:26:30.229Z,101147.31
2022-12-06T14:28:59.154Z,101149.75
2022-12-06T14:31:36.276Z,101142.09
2022-12-06T14:34:04.840Z,101149.28
2022-12-06T14:36:34.136Z,101142.38
2022-12-06T14:39:09.279Z,101146.66
2022-12-06T14:41:57.093Z,101143.38
2022-12-06T14:44:31.930Z,101142.69
2022-12-06T14:46:58.969Z,101140.25
2022-12-06T14:49:46.547Z,101136.81
2022-12-06T14:52:31.156Z,101130.09
2022-12-06T14:55:17.406Z,101125.34
2022-12-06T14:57:46.906Z,101129.56
2022-12-06T15:00:36.401Z,101134.28
2022-12-06T15:03:15.943Z,101130.03
2022-12-06T15:05:45.549Z,101128.41
2022-12-06T15:08:33.686Z,101124.75
2022-12-06T15:11:04.761Z,101125.91
2022-12-06T15:13:31.952Z,101125.41
2022-12-06T15:16:11.663Z,101129.94
2022-12-06T15:18:41.131Z,101129.44
2022-12-06T15:21:17.550Z,101126.19
2022-12-06T15:23:55.238Z,101126.19
2022-12-06T15:26:23.420Z,101121.47
2022-12-06T15:28:50.707Z,101129.44
2022-12-06T15:31:24.434Z,101127.00
2022-12-06T15:33:52.770Z,101130.75
2022-12-06T15:36:27.156Z,101127.16
2022-12-06T15:38:53.529Z,101123.75
2022-12-06T15:41:23.224Z,101128.16
2022-12-06T15:43:50.676Z,101132.28
2022-12-06T15:46:25.473Z,101131.47
2022-12-06T15:48:53.630Z,101129.66
2022-12-06T15:51:24.946Z,101132.44
2022-12-06T15:53:51.518Z,101132.13
2022-12-06T15:56:20.390Z,101121.03
2022-12-06T15:58:47.417Z,101122.66
2022-12-06T16:01:23.801Z,101129.34
2022-12-06T16:03:52.087Z,101124.63
2022-12-06T16:06:20.034Z,101110.75
2022-12-06T16:08:47.445Z,101121.84
2022-12-06T16:11:16.826Z,101121.03
2022-12-06T16:13:44.673Z,101123.00
2022-12-06T16:16:11.824Z,101128.03
2022-12-06T16:18:40.693Z,101123.28
2022-12-06T16:21:08.179Z,101115.28
2022-12-06T16:26:43.778Z,101117.06
2022-12-06T16:29:14.702Z,101117.72
2022-12-06T16:31:41.436Z,101119.50
2022-12-06T16:34:08.860Z,101108.22
2022-12-06T16:36:53.692Z,101117.81
2022-12-06T16:39:20.054Z,101122.22
2022-12-06T16:41:46.840Z,101111.75
2022-12-06T16:44:13.198Z,101114.06
2022-12-06T16:46:39.893Z,101101.97
2022-12-06T16:49:45.183Z,101097.38
2022-12-06T16:52:08.423Z,101094.59
2022-12-06T16:54:35.930Z,101091.63
2022-12-06T16:57:02.512Z,101091.47
2022-12-06T16:59:28.940Z,101086.56
2022-12-06T17:01:55.528Z,101090.28
2022-12-06T17:04:22.389Z,101091.41
2022-12-06T17:06:49.013Z,101091.41
2022-12-06T17:09:16.111Z,101083.72
2022-12-06T17:12:01.506Z,101085.69
2022-12-06T17:14:28.384Z,101076.56
2022-12-06T17:16:55.388Z,101074.13
2022-12-06T17:19:24.303Z,101086.84
2022-12-06T17:21:52.553Z,101079.66
2022-12-06T17:24:20.888Z,101078.50
2022-12-06T17:26:47.374Z,101079.34
2022-12-06T17:29:14.053Z,101071.81
2022-12-06T17:31:40.779Z,101075.41
2022-12-06T17:34:10.100Z,101069.88
2022-12-06T17:36:36.601Z,101072.66
2022-12-06T17:39:06.966Z,101074.28
2022-12-06T17:41:52.372Z,101071.50
2022-12-06T17:44:19.524Z,101075.94
2022-12-06T17:46:45.887Z,101075.94
2022-12-06T17:49:22.028Z,101078.19
2022-12-06T17:51:48.831Z,101079.53
2022-12-06T17:54:15.748Z,101075.59
2022-12-06T17:56:47.612Z,101076.41
2022-12-06T17:59:17.557Z,101075.28
2022-12-06T18:02:14.170Z,101082.16
2022-12-06T18:04:31.373Z,101070.72
2022-12-06T18:06:58.444Z,101071.56
2022-12-06T18:09:24.935Z,101067.63
2022-12-06T18:11:51.545Z,101078.09
2022-12-06T18:14:18.703Z,101075.81
2022-12-06T18:16:45.992Z,101073.56
2022-12-06T18:19:16.882Z,101074.38
2022-12-06T18:21:43.987Z,101071.25
2022-12-06T18:24:24.769Z,101072.09
2022-12-06T18:26:53.183Z,101066.72
2022-12-06T18:29:22.929Z,101079.44
2022-12-06T18:31:49.712Z,101070.81
2022-12-06T18:34:16.338Z,101059.72
2022-12-06T18:36:42.765Z,101065.75
2022-12-06T18:39:15.416Z,101067.41
2022-12-06T18:41:46.317Z,101060.72
2022-12-06T18:44:13.525Z,101062.03
2022-12-06T18:46:42.280Z,101058.13
2022-12-06T18:49:10.629Z,101063.38
2022-12-06T18:51:38.486Z,101061.06
2022-12-06T18:54:05.574Z,101056.66
2022-12-06T18:56:33.463Z,101056.00
2022-12-06T18:59:01.701Z,101054.38
2022-12-06T19:01:30.793Z,101051.31
2022-12-06T19:04:00.974Z,101042.97
2022-12-06T19:06:30.341Z,101052.13
2022-12-06T19:09:00.051Z,101055.72
2022-12-06T19:11:26.638Z,101044.63
2022-12-06T19:13:55.771Z,101048.53
2022-12-06T19:16:26.972Z,101042.97
2022-12-06T19:18:55.511Z,101045.75
2022-12-06T19:21:22.221Z,101044.63
2022-12-06T19:23:49.036Z,101035.63
2022-12-06T19:26:15.612Z,101037.09
2022-12-06T19:28:42.163Z,101037.75
2022-12-06T19:31:13.913Z,101035.28
2022-12-06T19:33:45.612Z,101032.19
2022-12-06T19:36:15.134Z,101033.34
2022-12-06T19:38:42.354Z,101038.88
2022-12-06T19:41:12.410Z,101036.44
2022-12-06T19:43:58.897Z,101039.69
2022-12-06T19:46:27.824Z,101036.59
2022-12-06T19:49:00.535Z,101035.78
2022-12-06T19:51:28.986Z,101031.56
2022-12-06T19:53:58.185Z,101029.25
2022-12-06T19:56:26.750Z,101023.91
2022-12-06T19:58:54.200Z,101028.63
2022-12-06T20:01:24.874Z,101027.16
2022-12-06T20:03:53.007Z,101034.66
2022-12-06T20:06:22.204Z,101029.94
2022-12-06T20:08:49.662Z,101034.66
2022-12-06T20:11:52.532Z,101034.66
2022-12-06T20:14:19.888Z,101038.44
2022-12-06T20:16:46.948Z,101028.16
2022-12-06T20:19:17.872Z,101018.69
2022-12-06T20:21:45.004Z,101020.00
2022-12-06T20:24:15.459Z,101013.66
2022-12-06T20:26:42.562Z,101020.19
2022-12-06T20:29:10.443Z,101021.00
2022-12-06T20:31:36.973Z,101016.75
2022-12-06T20:34:07.876Z,101010.38
2022-12-06T20:36:37.685Z,101019.22
2022-12-06T20:39:07.290Z,101021.19
2022-12-06T20:41:34.134Z,101015.94
2022-12-06T20:44:03.095Z,101015.94
2022-12-06T20:46:31.765Z,101015.13
2022-12-06T20:49:04.410Z,101011.03
2022-12-06T20:51:37.420Z,101013.31
2022-12-06T20:54:06.562Z,101005.81
2022-12-06T20:56:35.806Z,101005.81
2022-12-06T20:59:03.518Z,101010.22
2022-12-06T21:01:33.539Z,101003.03
2022-12-06T21:04:00.086Z,100996.38
2022-12-06T21:06:26.993Z,100989.66
2022-12-06T21:08:54.256Z,100993.59
2022-12-06T21:11:23.822Z,100990.81
2022-12-06T21:13:56.186Z,100988.03
2022-12-06T21:16:26.090Z,100987.19
2022-12-06T21:18:57.452Z,100993.06
2022-12-06T21:21:26.761Z,100990.63
2022-12-06T21:23:53.104Z,100987.34
2022-12-06T21:26:20.031Z,100990.13
2022-12-06T21:28:46.416Z,100994.84
2022-12-06T21:31:12.870Z,100995.66
2022-12-06T21:33:39.515Z,100992.91
2022-12-06T21:36:07.127Z,100983.75
2022-12-06T21:38:36.529Z,100981.50
2022-12-06T21:41:07.833Z,100985.09
2022-12-06T21:43:35.874Z,100975.94
2022-12-06T21:46:07.953Z,100979.19
2022-12-06T21:48:34.954Z,100988.50
2022-12-06T21:51:06.594Z,100989.00
2022-12-06T21:53:33.993Z,100983.97
2022-12-06T21:56:06.029Z,100979.56
2022-12-06T21:58:32.420Z,100983.63
2022-12-06T22:01:05.044Z,100986.41
2022-12-06T22:03:31.468Z,100982.97
2022-12-06T22:05:58.107Z,100990.16
2022-12-06T22:08:24.598Z,100985.44
2022-12-06T22:10:52.735Z,100985.09
2022-12-06T22:13:19.128Z,100980.34
2022-12-06T22:15:46.083Z,100972.53
2022-12-06T22:18:14.037Z,100983.81
2022-12-06T22:20:40.728Z,100983.81
2022-12-06T22:23:07.049Z,100991.00
2022-12-06T22:25:33.487Z,100980.22
2022-12-06T22:27:59.837Z,100977.94
2022-12-06T22:30:26.682Z,100969.94
2022-12-06T22:32:53.052Z,100973.53
2022-12-06T22:35:21.549Z,100968.78
2022-12-06T22:37:48.023Z,100965.19
2022-12-06T22:40:14.554Z,100962.72
2022-12-06T22:42:41.118Z,100973.81
2022-12-06T22:45:08.925Z,100982.16
2022-12-06T22:47:35.375Z,100974.16
2022-12-06T22:50:02.207Z,100972.19
2022-12-06T22:52:29.148Z,100973.00
2022-12-06T22:54:55.481Z,100963.41
2022-12-06T22:57:21.850Z,100966.66
2022-12-06T22:59:48.159Z,100969.13
2022-12-06T23:02:14.648Z,100969.13
2022-12-06T23:04:41.249Z,100967.97
2022-12-06T23:07:07.682Z,100959.66
2022-12-06T23:09:35.807Z,100966.00
2022-12-06T23:12:02.237Z,100958.50
2022-12-06T23:14:28.553Z,100949.34
2022-12-06T23:16:54.927Z,100952.13
2022-12-06T23:19:21.258Z,100950.97
2022-12-06T23:21:48.041Z,100956.53
2022-12-06T23:24:14.974Z,100949.84
2022-12-06T23:26:44.332Z,100945.91
2022-12-06T23:29:11.451Z,100946.75
2022-12-06T23:31:41.578Z,100952.78
2022-12-06T23:34:12.638Z,100950.00
2022-12-06T23:36:39.288Z,100952.44
2022-12-06T23:39:06.324Z,100944.94
2022-12-06T23:41:33.791Z,100957.69
2022-12-06T23:44:00.890Z,100965.69
2022-12-06T23:46:29.983Z,100962.56
2022-12-06T23:48:57.152Z,100959.16
2022-12-06T23:51:30.795Z,100957.19
2022-12-06T23:53:59.025Z,100957.66
2022-12-06T23:56:28.525Z,100951.81
2022-12-06T23:58:55.358Z,100952.63
